Flugplatz Heubach

Für EDTH sind keine METAR/TAF Berichte vorhanden.
Es werden die Flugwettermeldungen vom Flugplatz Adolf Würth in 36 km Entfernung angezeigt.

Bericht für EDTY

vom 23.02. um 22:50 UTC

Wind 19 kt aus 330°

Sichtweite 7000 m

gering bewölkt in 700 ft

aufgelockert bewölkt in 1000 ft

bedeckt in 1400 ft

Temperatur 6.0°C

Taupunkt 5.0°C

Luftfeuchtigkeit 93%

Luftdruck 1021 hPa

EDTY 232250Z AUTO 33019KT 7000 // FEW007/// SCT010/// OVC014/// 06/05 Q1021

Prognose für EDTY

vom 23.02. um 00:00 UTC

Am 23.02. zwischen 00:00 UTC und 00:00 UTC

Wind 20 kt aus 260° in Böen 35 kt

Sichtweite 10 km oder mehr

bedeckt in 3000 ft


Am 23.02. zwischen 00:00 UTC und 00:00 UTC zeitweise

Sichtweite 3500 m

Regen

aufgebrochene Bewölkung in 800 ft


Am 23.02. zwischen 00:00 und 00:00 UTC übergehend zu

Wind 8 kt aus 350°

Sichtweite 10 km oder mehr

bedeckt in 3000 ft

TAF EDTY 231700Z 2318/2403 26020G35KT 9999 OVC030 TEMPO 2320/2403 3500 RA BKN008 BECMG 2323/2402 35008KT
Impressum